Reedsburg, Wisconsin
Current Conditions -  °F | °C
As of 3:35 PM on Wednesday 17 Dec 2014 (Local Time) from KC35 Reporting Station
Overcast Overcast  
Wind Chill: 14°   Ceiling: 2200
Heat Index: 22°   Visibility: 10mi
Dew Point: 15°   Wind: 7mph
Humidity: 72%   Direction: 320°NW
Pressure: 30.23"   Gusts: NA
Location:  43.53°N, 90°W
Report Text: KC35 172135Z AUTO 32006KT 10SM OVC022 M05/M10 A3023 RMK AO2 T10531097
Loading
Personal Weather Stations






























Interactive Weather Map New forecast layout! Learn more

10-Day Weather Forecast

Advertisements
Track Severe Weather on mobile